sensor_id;sensor_type;location;lat;lon;timestamp;P1;durP1;ratioP1;P2;durP2;ratioP2
4808;SDS011;2418;49.930;8.606;2023-04-03T00:00:13;3.00;;;2.60;;
4808;SDS011;2418;49.930;8.606;2023-04-03T00:02:39;3.13;;;2.83;;
4808;SDS011;2418;49.930;8.606;2023-04-03T00:05:05;2.50;;;2.30;;
4808;SDS011;2418;49.930;8.606;2023-04-03T00:07:31;2.80;;;2.50;;
4808;SDS011;2418;49.930;8.606;2023-04-03T00:09:57;2.70;;;2.60;;
4808;SDS011;2418;49.930;8.606;2023-04-03T00:12:23;3.10;;;2.90;;
4808;SDS011;2418;49.930;8.606;2023-04-03T00:14:49;5.18;;;2.75;;
4808;SDS011;2418;49.930;8.606;2023-04-03T00:17:15;2.80;;;2.70;;
4808;SDS011;2418;49.930;8.606;2023-04-03T00:19:40;2.70;;;2.60;;
4808;SDS011;2418;49.930;8.606;2023-04-03T00:22:06;2.80;;;2.37;;
4808;SDS011;2418;49.930;8.606;2023-04-03T00:24:32;2.83;;;2.55;;
4808;SDS011;2418;49.930;8.606;2023-04-03T00:26:58;2.28;;;2.17;;
4808;SDS011;2418;49.930;8.606;2023-04-03T00:29:24;2.45;;;2.17;;
4808;SDS011;2418;49.930;8.606;2023-04-03T00:31:50;2.33;;;2.20;;
4808;SDS011;2418;49.930;8.606;2023-04-03T00:34:16;3.40;;;2.28;;
4808;SDS011;2418;49.930;8.606;2023-04-03T00:36:41;3.67;;;2.28;;
4808;SDS011;2418;49.930;8.606;2023-04-03T00:39:07;2.50;;;2.00;;
4808;SDS011;2418;49.930;8.606;2023-04-03T00:41:33;2.40;;;2.30;;
4808;SDS011;2418;49.930;8.606;2023-04-03T00:44:00;2.50;;;2.22;;
4808;SDS011;2418;49.930;8.606;2023-04-03T00:46:26;2.40;;;2.30;;
4808;SDS011;2418;49.930;8.606;2023-04-03T00:48:51;2.55;;;2.35;;
4808;SDS011;2418;49.930;8.606;2023-04-03T00:51:19;2.38;;;2.17;;
4808;SDS011;2418;49.930;8.606;2023-04-03T00:54:01;4.05;;;2.45;;
4808;SDS011;2418;49.930;8.606;2023-04-03T00:56:28;4.65;;;2.35;;
4808;SDS011;2418;49.930;8.606;2023-04-03T00:58:59;2.20;;;2.10;;
4808;SDS011;2418;49.930;8.606;2023-04-03T01:01:28;1.85;;;1.75;;
4808;SDS011;2418;49.930;8.606;2023-04-03T01:03:55;2.50;;;2.30;;
4808;SDS011;2418;49.930;8.606;2023-04-03T01:06:23;3.55;;;2.25;;
4808;SDS011;2418;49.930;8.606;2023-04-03T01:08:59;2.30;;;2.10;;
4808;SDS011;2418;49.930;8.606;2023-04-03T01:11:25;2.10;;;1.98;;
4808;SDS011;2418;49.930;8.606;2023-04-03T01:13:51;1.70;;;1.70;;
4808;SDS011;2418;49.930;8.606;2023-04-03T01:16:18;2.10;;;2.00;;
4808;SDS011;2418;49.930;8.606;2023-04-03T01:18:44;2.60;;;2.07;;
4808;SDS011;2418;49.930;8.606;2023-04-03T01:21:16;2.72;;;2.05;;
4808;SDS011;2418;49.930;8.606;2023-04-03T01:26:33;2.00;;;1.90;;
4808;SDS011;2418;49.930;8.606;2023-04-03T01:29:00;2.20;;;2.00;;
4808;SDS011;2418;49.930;8.606;2023-04-03T01:34:01;1.70;;;1.60;;
4808;SDS011;2418;49.930;8.606;2023-04-03T01:36:29;1.80;;;1.80;;
4808;SDS011;2418;49.930;8.606;2023-04-03T01:38:56;4.50;;;2.00;;
4808;SDS011;2418;49.930;8.606;2023-04-03T01:41:24;2.17;;;2.00;;
4808;SDS011;2418;49.930;8.606;2023-04-03T01:43:50;2.42;;;1.88;;
4808;SDS011;2418;49.930;8.606;2023-04-03T01:46:16;1.90;;;1.80;;
4808;SDS011;2418;49.930;8.606;2023-04-03T01:48:42;2.72;;;2.00;;
4808;SDS011;2418;49.930;8.606;2023-04-03T01:51:08;3.40;;;2.40;;
4808;SDS011;2418;49.930;8.606;2023-04-03T01:53:35;2.22;;;2.13;;
4808;SDS011;2418;49.930;8.606;2023-04-03T01:56:00;2.00;;;1.90;;
4808;SDS011;2418;49.930;8.606;2023-04-03T01:58:26;2.92;;;1.55;;
4808;SDS011;2418;49.930;8.606;2023-04-03T02:00:52;2.00;;;2.00;;
4808;SDS011;2418;49.930;8.606;2023-04-03T02:03:18;5.80;;;2.40;;
4808;SDS011;2418;49.930;8.606;2023-04-03T02:05:44;5.70;;;2.15;;
4808;SDS011;2418;49.930;8.606;2023-04-03T02:08:11;2.40;;;2.00;;
4808;SDS011;2418;49.930;8.606;2023-04-03T02:10:37;4.40;;;2.20;;
4808;SDS011;2418;49.930;8.606;2023-04-03T02:13:04;2.47;;;1.90;;
4808;SDS011;2418;49.930;8.606;2023-04-03T02:15:30;2.13;;;1.95;;
4808;SDS011;2418;49.930;8.606;2023-04-03T02:17:55;1.65;;;1.55;;
4808;SDS011;2418;49.930;8.606;2023-04-03T02:20:21;2.78;;;1.77;;
4808;SDS011;2418;49.930;8.606;2023-04-03T02:22:47;1.92;;;1.83;;
4808;SDS011;2418;49.930;8.606;2023-04-03T02:25:13;2.70;;;1.77;;
4808;SDS011;2418;49.930;8.606;2023-04-03T02:27:38;2.07;;;1.97;;
4808;SDS011;2418;49.930;8.606;2023-04-03T02:30:04;2.33;;;1.80;;
4808;SDS011;2418;49.930;8.606;2023-04-03T02:32:31;2.45;;;1.80;;
4808;SDS011;2418;49.930;8.606;2023-04-03T02:34:57;2.00;;;1.90;;
4808;SDS011;2418;49.930;8.606;2023-04-03T02:37:23;3.27;;;2.03;;
4808;SDS011;2418;49.930;8.606;2023-04-03T02:39:49;1.90;;;1.80;;
4808;SDS011;2418;49.930;8.606;2023-04-03T02:42:15;2.50;;;1.60;;
4808;SDS011;2418;49.930;8.606;2023-04-03T02:44:41;3.28;;;2.30;;
4808;SDS011;2418;49.930;8.606;2023-04-03T02:47:06;4.00;;;1.92;;
4808;SDS011;2418;49.930;8.606;2023-04-03T02:49:32;2.10;;;2.00;;
4808;SDS011;2418;49.930;8.606;2023-04-03T02:51:58;1.83;;;1.83;;
4808;SDS011;2418;49.930;8.606;2023-04-03T02:54:24;1.90;;;1.80;;
4808;SDS011;2418;49.930;8.606;2023-04-03T02:56:53;4.10;;;1.60;;
4808;SDS011;2418;49.930;8.606;2023-04-03T02:59:19;3.25;;;1.83;;
4808;SDS011;2418;49.930;8.606;2023-04-03T03:01:46;1.90;;;1.70;;
4808;SDS011;2418;49.930;8.606;2023-04-03T03:04:12;2.40;;;1.80;;
4808;SDS011;2418;49.930;8.606;2023-04-03T03:06:37;4.30;;;2.10;;
4808;SDS011;2418;49.930;8.606;2023-04-03T03:09:03;1.60;;;1.50;;
4808;SDS011;2418;49.930;8.606;2023-04-03T03:11:30;2.00;;;1.90;;
4808;SDS011;2418;49.930;8.606;2023-04-03T03:13:56;3.80;;;1.60;;
4808;SDS011;2418;49.930;8.606;2023-04-03T03:16:22;1.60;;;1.50;;
4808;SDS011;2418;49.930;8.606;2023-04-03T03:18:48;3.20;;;2.03;;
4808;SDS011;2418;49.930;8.606;2023-04-03T03:21:14;3.90;;;2.00;;
4808;SDS011;2418;49.930;8.606;2023-04-03T03:23:40;2.83;;;2.17;;
4808;SDS011;2418;49.930;8.606;2023-04-03T03:26:07;3.47;;;2.20;;
4808;SDS011;2418;49.930;8.606;2023-04-03T03:28:34;1.80;;;1.70;;
4808;SDS011;2418;49.930;8.606;2023-04-03T03:31:01;2.20;;;2.00;;
4808;SDS011;2418;49.930;8.606;2023-04-03T03:33:27;3.60;;;1.90;;
4808;SDS011;2418;49.930;8.606;2023-04-03T03:35:53;4.03;;;1.70;;
4808;SDS011;2418;49.930;8.606;2023-04-03T03:38:19;4.78;;;1.65;;
4808;SDS011;2418;49.930;8.606;2023-04-03T03:40:47;2.60;;;1.98;;
4808;SDS011;2418;49.930;8.606;2023-04-03T03:43:13;2.60;;;2.20;;
4808;SDS011;2418;49.930;8.606;2023-04-03T03:45:39;2.50;;;2.30;;
4808;SDS011;2418;49.930;8.606;2023-04-03T03:48:05;2.60;;;2.13;;
4808;SDS011;2418;49.930;8.606;2023-04-03T03:50:31;2.00;;;1.90;;
4808;SDS011;2418;49.930;8.606;2023-04-03T03:52:57;2.13;;;1.83;;
4808;SDS011;2418;49.930;8.606;2023-04-03T03:55:23;2.67;;;1.75;;
4808;SDS011;2418;49.930;8.606;2023-04-03T03:57:49;3.40;;;1.92;;
4808;SDS011;2418;49.930;8.606;2023-04-03T04:00:15;2.37;;;2.27;;
4808;SDS011;2418;49.930;8.606;2023-04-03T04:02:41;3.35;;;1.83;;
4808;SDS011;2418;49.930;8.606;2023-04-03T04:05:07;3.60;;;1.70;;
4808;SDS011;2418;49.930;8.606;2023-04-03T04:07:33;3.10;;;1.60;;
4808;SDS011;2418;49.930;8.606;2023-04-03T04:09:59;1.60;;;1.40;;
4808;SDS011;2418;49.930;8.606;2023-04-03T04:12:25;3.50;;;2.20;;
4808;SDS011;2418;49.930;8.606;2023-04-03T04:14:51;2.05;;;1.67;;
4808;SDS011;2418;49.930;8.606;2023-04-03T04:17:19;5.10;;;1.90;;
4808;SDS011;2418;49.930;8.606;2023-04-03T04:19:45;2.10;;;1.17;;
4808;SDS011;2418;49.930;8.606;2023-04-03T04:22:11;4.80;;;1.30;;
4808;SDS011;2418;49.930;8.606;2023-04-03T04:24:37;6.72;;;1.73;;
4808;SDS011;2418;49.930;8.606;2023-04-03T04:27:03;3.20;;;1.37;;
4808;SDS011;2418;49.930;8.606;2023-04-03T04:29:28;3.55;;;1.40;;
4808;SDS011;2418;49.930;8.606;2023-04-03T04:31:55;2.25;;;1.33;;
4808;SDS011;2418;49.930;8.606;2023-04-03T04:34:21;3.83;;;1.70;;
4808;SDS011;2418;49.930;8.606;2023-04-03T04:36:46;3.17;;;1.70;;
4808;SDS011;2418;49.930;8.606;2023-04-03T04:39:12;3.13;;;1.50;;
4808;SDS011;2418;49.930;8.606;2023-04-03T04:41:38;3.38;;;1.30;;
4808;SDS011;2418;49.930;8.606;2023-04-03T04:44:04;1.45;;;1.23;;
4808;SDS011;2418;49.930;8.606;2023-04-03T04:46:30;6.30;;;1.43;;
4808;SDS011;2418;49.930;8.606;2023-04-03T04:48:56;2.55;;;1.40;;
4808;SDS011;2418;49.930;8.606;2023-04-03T04:51:22;1.65;;;1.25;;
4808;SDS011;2418;49.930;8.606;2023-04-03T04:53:48;2.60;;;1.60;;
4808;SDS011;2418;49.930;8.606;2023-04-03T04:56:13;4.07;;;1.10;;
4808;SDS011;2418;49.930;8.606;2023-04-03T04:58:39;1.50;;;1.40;;
4808;SDS011;2418;49.930;8.606;2023-04-03T05:01:06;4.60;;;1.35;;
4808;SDS011;2418;49.930;8.606;2023-04-03T05:03:32;2.00;;;1.40;;
4808;SDS011;2418;49.930;8.606;2023-04-03T05:05:58;4.60;;;1.63;;
4808;SDS011;2418;49.930;8.606;2023-04-03T05:08:24;1.10;;;1.10;;
4808;SDS011;2418;49.930;8.606;2023-04-03T05:10:50;2.30;;;2.10;;
4808;SDS011;2418;49.930;8.606;2023-04-03T05:13:18;2.50;;;1.40;;
4808;SDS011;2418;49.930;8.606;2023-04-03T05:15:45;4.78;;;1.90;;
4808;SDS011;2418;49.930;8.606;2023-04-03T05:18:11;2.63;;;1.30;;
4808;SDS011;2418;49.930;8.606;2023-04-03T05:20:37;1.48;;;1.38;;
4808;SDS011;2418;49.930;8.606;2023-04-03T05:23:03;3.65;;;1.70;;
4808;SDS011;2418;49.930;8.606;2023-04-03T05:25:29;4.20;;;1.70;;
4808;SDS011;2418;49.930;8.606;2023-04-03T05:27:56;1.50;;;1.40;;
4808;SDS011;2418;49.930;8.606;2023-04-03T05:30:21;3.00;;;2.05;;
4808;SDS011;2418;49.930;8.606;2023-04-03T05:32:47;1.73;;;1.53;;
4808;SDS011;2418;49.930;8.606;2023-04-03T05:35:13;3.25;;;1.50;;
4808;SDS011;2418;49.930;8.606;2023-04-03T05:37:39;4.20;;;2.15;;
4808;SDS011;2418;49.930;8.606;2023-04-03T05:40:06;5.95;;;1.50;;
4808;SDS011;2418;49.930;8.606;2023-04-03T05:42:32;7.25;;;1.58;;
4808;SDS011;2418;49.930;8.606;2023-04-03T05:44:58;2.78;;;1.50;;
4808;SDS011;2418;49.930;8.606;2023-04-03T05:47:24;2.40;;;1.58;;
4808;SDS011;2418;49.930;8.606;2023-04-03T05:49:51;3.45;;;1.60;;
4808;SDS011;2418;49.930;8.606;2023-04-03T05:52:21;2.33;;;1.55;;
4808;SDS011;2418;49.930;8.606;2023-04-03T05:54:48;1.60;;;1.50;;
4808;SDS011;2418;49.930;8.606;2023-04-03T05:57:14;3.33;;;1.80;;
4808;SDS011;2418;49.930;8.606;2023-04-03T05:59:44;1.63;;;1.52;;
4808;SDS011;2418;49.930;8.606;2023-04-03T06:02:11;5.72;;;1.80;;
4808;SDS011;2418;49.930;8.606;2023-04-03T06:04:37;4.00;;;1.47;;
4808;SDS011;2418;49.930;8.606;2023-04-03T06:07:03;4.55;;;1.70;;
4808;SDS011;2418;49.930;8.606;2023-04-03T06:09:29;4.07;;;1.90;;
4808;SDS011;2418;49.930;8.606;2023-04-03T06:11:55;6.82;;;1.70;;
4808;SDS011;2418;49.930;8.606;2023-04-03T06:14:23;4.03;;;1.80;;
4808;SDS011;2418;49.930;8.606;2023-04-03T06:16:51;3.88;;;1.50;;
4808;SDS011;2418;49.930;8.606;2023-04-03T06:19:17;2.40;;;1.67;;
4808;SDS011;2418;49.930;8.606;2023-04-03T06:21:43;4.47;;;2.20;;
4808;SDS011;2418;49.930;8.606;2023-04-03T06:24:09;3.58;;;2.13;;
4808;SDS011;2418;49.930;8.606;2023-04-03T06:26:37;4.10;;;1.92;;
4808;SDS011;2418;49.930;8.606;2023-04-03T06:29:04;8.40;;;1.90;;
4808;SDS011;2418;49.930;8.606;2023-04-03T06:31:30;4.83;;;1.80;;
4808;SDS011;2418;49.930;8.606;2023-04-03T06:33:57;4.00;;;2.00;;
4808;SDS011;2418;49.930;8.606;2023-04-03T06:36:23;1.95;;;1.77;;
4808;SDS011;2418;49.930;8.606;2023-04-03T06:38:49;3.10;;;1.75;;
4808;SDS011;2418;49.930;8.606;2023-04-03T06:41:15;1.60;;;1.50;;
4808;SDS011;2418;49.930;8.606;2023-04-03T06:43:42;4.53;;;2.00;;
4808;SDS011;2418;49.930;8.606;2023-04-03T06:46:15;3.47;;;1.98;;
4808;SDS011;2418;49.930;8.606;2023-04-03T06:48:41;2.28;;;2.00;;
4808;SDS011;2418;49.930;8.606;2023-04-03T06:51:11;4.50;;;2.00;;
4808;SDS011;2418;49.930;8.606;2023-04-03T06:53:38;1.70;;;1.60;;
4808;SDS011;2418;49.930;8.606;2023-04-03T06:56:04;4.38;;;1.88;;
4808;SDS011;2418;49.930;8.606;2023-04-03T06:58:30;4.70;;;1.90;;
4808;SDS011;2418;49.930;8.606;2023-04-03T07:00:56;4.47;;;1.50;;
4808;SDS011;2418;49.930;8.606;2023-04-03T07:03:22;3.28;;;1.90;;
4808;SDS011;2418;49.930;8.606;2023-04-03T07:05:51;5.22;;;1.90;;
4808;SDS011;2418;49.930;8.606;2023-04-03T07:08:18;3.93;;;1.90;;
4808;SDS011;2418;49.930;8.606;2023-04-03T07:10:44;3.85;;;1.95;;
4808;SDS011;2418;49.930;8.606;2023-04-03T07:13:10;2.50;;;1.80;;
4808;SDS011;2418;49.930;8.606;2023-04-03T07:15:36;1.65;;;1.55;;
4808;SDS011;2418;49.930;8.606;2023-04-03T07:18:02;3.33;;;1.80;;
4808;SDS011;2418;49.930;8.606;2023-04-03T07:20:30;2.58;;;2.30;;
4808;SDS011;2418;49.930;8.606;2023-04-03T07:22:57;1.83;;;1.73;;
4808;SDS011;2418;49.930;8.606;2023-04-03T07:25:22;4.60;;;1.90;;
4808;SDS011;2418;49.930;8.606;2023-04-03T07:27:48;3.00;;;2.00;;
4808;SDS011;2418;49.930;8.606;2023-04-03T07:30:14;4.50;;;2.10;;
4808;SDS011;2418;49.930;8.606;2023-04-03T07:32:41;4.30;;;2.13;;
4808;SDS011;2418;49.930;8.606;2023-04-03T07:35:07;4.35;;;2.30;;
4808;SDS011;2418;49.930;8.606;2023-04-03T07:37:34;4.65;;;1.63;;
4808;SDS011;2418;49.930;8.606;2023-04-03T07:40:00;2.65;;;1.73;;
4808;SDS011;2418;49.930;8.606;2023-04-03T07:42:29;5.25;;;1.85;;
4808;SDS011;2418;49.930;8.606;2023-04-03T07:44:55;2.47;;;1.30;;
4808;SDS011;2418;49.930;8.606;2023-04-03T07:47:21;4.05;;;1.70;;
4808;SDS011;2418;49.930;8.606;2023-04-03T07:49:48;1.80;;;1.70;;
4808;SDS011;2418;49.930;8.606;2023-04-03T07:52:14;2.15;;;1.50;;
4808;SDS011;2418;49.930;8.606;2023-04-03T07:54:40;2.85;;;1.98;;
4808;SDS011;2418;49.930;8.606;2023-04-03T07:57:06;6.25;;;2.30;;
4808;SDS011;2418;49.930;8.606;2023-04-03T07:59:32;2.63;;;1.47;;
4808;SDS011;2418;49.930;8.606;2023-04-03T08:02:00;3.10;;;1.90;;
4808;SDS011;2418;49.930;8.606;2023-04-03T08:04:30;4.50;;;2.17;;
4808;SDS011;2418;49.930;8.606;2023-04-03T08:06:56;5.28;;;2.10;;
4808;SDS011;2418;49.930;8.606;2023-04-03T08:09:22;1.58;;;1.48;;
4808;SDS011;2418;49.930;8.606;2023-04-03T08:11:49;3.70;;;2.60;;
4808;SDS011;2418;49.930;8.606;2023-04-03T08:14:18;3.92;;;1.80;;
4808;SDS011;2418;49.930;8.606;2023-04-03T08:16:45;2.90;;;1.70;;
4808;SDS011;2418;49.930;8.606;2023-04-03T08:19:11;7.50;;;1.90;;
4808;SDS011;2418;49.930;8.606;2023-04-03T08:21:39;3.05;;;1.55;;
4808;SDS011;2418;49.930;8.606;2023-04-03T08:24:06;1.70;;;1.52;;
4808;SDS011;2418;49.930;8.606;2023-04-03T08:26:32;3.10;;;2.00;;
4808;SDS011;2418;49.930;8.606;2023-04-03T08:28:59;1.40;;;1.23;;
4808;SDS011;2418;49.930;8.606;2023-04-03T08:31:25;2.60;;;1.23;;
4808;SDS011;2418;49.930;8.606;2023-04-03T08:33:52;1.88;;;1.55;;
4808;SDS011;2418;49.930;8.606;2023-04-03T08:36:22;2.63;;;1.48;;
4808;SDS011;2418;49.930;8.606;2023-04-03T08:47:02;1.70;;;1.60;;
4808;SDS011;2418;49.930;8.606;2023-04-03T08:49:37;2.20;;;1.70;;
4808;SDS011;2418;49.930;8.606;2023-04-03T08:52:09;3.63;;;1.70;;
4808;SDS011;2418;49.930;8.606;2023-04-03T08:54:42;3.03;;;1.70;;
4808;SDS011;2418;49.930;8.606;2023-04-03T08:57:15;5.30;;;1.88;;
4808;SDS011;2418;49.930;8.606;2023-04-03T08:59:42;3.50;;;1.85;;
4808;SDS011;2418;49.930;8.606;2023-04-03T09:02:17;1.98;;;1.70;;
4808;SDS011;2418;49.930;8.606;2023-04-03T09:04:46;3.38;;;1.65;;
4808;SDS011;2418;49.930;8.606;2023-04-03T09:07:14;1.80;;;1.50;;
4808;SDS011;2418;49.930;8.606;2023-04-03T09:09:42;5.07;;;1.52;;
4808;SDS011;2418;49.930;8.606;2023-04-03T09:12:23;2.20;;;1.42;;
4808;SDS011;2418;49.930;8.606;2023-04-03T09:20:09;3.20;;;1.80;;
4808;SDS011;2418;49.930;8.606;2023-04-03T09:22:37;2.63;;;1.50;;
4808;SDS011;2418;49.930;8.606;2023-04-03T09:25:10;1.60;;;1.50;;
4808;SDS011;2418;49.930;8.606;2023-04-03T09:27:37;1.40;;;1.30;;
4808;SDS011;2418;49.930;8.606;2023-04-03T09:30:03;3.13;;;1.37;;
4808;SDS011;2418;49.930;8.606;2023-04-03T09:32:33;2.25;;;1.48;;
4808;SDS011;2418;49.930;8.606;2023-04-03T09:35:03;2.50;;;1.50;;
4808;SDS011;2418;49.930;8.606;2023-04-03T09:37:49;1.40;;;1.30;;
4808;SDS011;2418;49.930;8.606;2023-04-03T09:42:56;4.50;;;1.38;;
4808;SDS011;2418;49.930;8.606;2023-04-03T09:45:27;1.80;;;1.60;;
4808;SDS011;2418;49.930;8.606;2023-04-03T09:50:35;3.55;;;1.38;;
4808;SDS011;2418;49.930;8.606;2023-04-03T09:53:06;3.42;;;2.05;;
4808;SDS011;2418;49.930;8.606;2023-04-03T09:55:32;2.80;;;1.40;;
4808;SDS011;2418;49.930;8.606;2023-04-03T09:57:59;3.40;;;1.50;;
4808;SDS011;2418;49.930;8.606;2023-04-03T10:00:27;1.52;;;1.42;;
4808;SDS011;2418;49.930;8.606;2023-04-03T10:02:55;2.05;;;1.20;;
4808;SDS011;2418;49.930;8.606;2023-04-03T10:05:26;1.77;;;1.67;;
4808;SDS011;2418;49.930;8.606;2023-04-03T10:10:38;5.05;;;1.52;;
4808;SDS011;2418;49.930;8.606;2023-04-03T10:13:10;5.00;;;1.57;;
4808;SDS011;2418;49.930;8.606;2023-04-03T10:15:42;2.30;;;1.38;;
4808;SDS011;2418;49.930;8.606;2023-04-03T10:20:54;4.43;;;1.63;;
4808;SDS011;2418;49.930;8.606;2023-04-03T10:23:41;3.10;;;1.80;;
4808;SDS011;2418;49.930;8.606;2023-04-03T10:29:02;1.25;;;1.10;;
4808;SDS011;2418;49.930;8.606;2023-04-03T10:34:06;2.30;;;1.60;;
4808;SDS011;2418;49.930;8.606;2023-04-03T10:36:42;1.60;;;1.50;;
4808;SDS011;2418;49.930;8.606;2023-04-03T10:42:08;1.98;;;1.58;;
4808;SDS011;2418;49.930;8.606;2023-04-03T10:44:38;1.42;;;1.40;;
4808;SDS011;2418;49.930;8.606;2023-04-03T10:52:14;2.05;;;1.70;;
4808;SDS011;2418;49.930;8.606;2023-04-03T10:54:46;1.80;;;1.50;;
4808;SDS011;2418;49.930;8.606;2023-04-03T10:57:16;2.63;;;2.33;;
4808;SDS011;2418;49.930;8.606;2023-04-03T11:00:03;2.42;;;2.15;;
4808;SDS011;2418;49.930;8.606;2023-04-03T11:02:30;2.00;;;1.60;;
4808;SDS011;2418;49.930;8.606;2023-04-03T11:05:06;4.28;;;1.60;;
4808;SDS011;2418;49.930;8.606;2023-04-03T11:07:42;1.77;;;1.45;;
4808;SDS011;2418;49.930;8.606;2023-04-03T11:10:17;4.00;;;1.33;;
4808;SDS011;2418;49.930;8.606;2023-04-03T11:12:46;3.40;;;1.25;;
4808;SDS011;2418;49.930;8.606;2023-04-03T11:15:15;1.33;;;1.23;;
4808;SDS011;2418;49.930;8.606;2023-04-03T11:18:04;1.50;;;1.40;;
4808;SDS011;2418;49.930;8.606;2023-04-03T11:20:35;1.25;;;1.25;;
4808;SDS011;2418;49.930;8.606;2023-04-03T11:23:04;3.58;;;1.20;;
4808;SDS011;2418;49.930;8.606;2023-04-03T11:25:35;1.23;;;1.13;;
4808;SDS011;2418;49.930;8.606;2023-04-03T11:28:04;1.17;;;1.17;;
4808;SDS011;2418;49.930;8.606;2023-04-03T11:35:59;1.40;;;1.40;;
4808;SDS011;2418;49.930;8.606;2023-04-03T11:38:27;2.38;;;1.75;;
4808;SDS011;2418;49.930;8.606;2023-04-03T11:40:55;2.00;;;1.25;;
4808;SDS011;2418;49.930;8.606;2023-04-03T11:43:29;5.90;;;1.40;;
4808;SDS011;2418;49.930;8.606;2023-04-03T11:45:59;7.82;;;1.60;;
4808;SDS011;2418;49.930;8.606;2023-04-03T11:50:53;2.00;;;0.90;;
4808;SDS011;2418;49.930;8.606;2023-04-03T11:53:30;1.40;;;1.30;;
4808;SDS011;2418;49.930;8.606;2023-04-03T11:55:58;1.45;;;1.40;;
4808;SDS011;2418;49.930;8.606;2023-04-03T11:58:29;2.60;;;1.30;;
4808;SDS011;2418;49.930;8.606;2023-04-03T12:13:42;1.33;;;1.30;;
4808;SDS011;2418;49.930;8.606;2023-04-03T12:32:19;1.10;;;1.10;;
4808;SDS011;2418;49.930;8.606;2023-04-03T12:45:25;1.20;;;1.20;;
4808;SDS011;2418;49.930;8.606;2023-04-03T12:47:55;1.20;;;1.00;;
4808;SDS011;2418;49.930;8.606;2023-04-03T12:50:22;2.40;;;1.20;;
4808;SDS011;2418;49.930;8.606;2023-04-03T12:53:05;1.10;;;1.10;;
4808;SDS011;2418;49.930;8.606;2023-04-03T12:55:31;2.15;;;1.20;;
4808;SDS011;2418;49.930;8.606;2023-04-03T12:58:12;1.75;;;1.00;;
4808;SDS011;2418;49.930;8.606;2023-04-03T13:00:39;2.65;;;1.45;;
4808;SDS011;2418;49.930;8.606;2023-04-03T13:03:06;1.92;;;1.63;;
4808;SDS011;2418;49.930;8.606;2023-04-03T13:05:32;3.60;;;1.35;;
4808;SDS011;2418;49.930;8.606;2023-04-03T13:11:01;1.40;;;1.40;;
4808;SDS011;2418;49.930;8.606;2023-04-03T13:13:28;1.08;;;1.08;;
4808;SDS011;2418;49.930;8.606;2023-04-03T13:15:55;1.40;;;1.30;;
4808;SDS011;2418;49.930;8.606;2023-04-03T13:18:31;2.50;;;1.27;;
4808;SDS011;2418;49.930;8.606;2023-04-03T13:20:59;1.50;;;1.40;;
4808;SDS011;2418;49.930;8.606;2023-04-03T13:23:26;1.80;;;1.40;;
4808;SDS011;2418;49.930;8.606;2023-04-03T13:25:53;1.90;;;1.90;;
4808;SDS011;2418;49.930;8.606;2023-04-03T13:28:21;1.48;;;1.38;;
4808;SDS011;2418;49.930;8.606;2023-04-03T13:30:55;2.47;;;1.75;;
4808;SDS011;2418;49.930;8.606;2023-04-03T13:33:23;3.40;;;2.10;;
4808;SDS011;2418;49.930;8.606;2023-04-03T13:35:54;2.00;;;1.77;;
4808;SDS011;2418;49.930;8.606;2023-04-03T13:38:41;3.60;;;1.37;;
4808;SDS011;2418;49.930;8.606;2023-04-03T13:41:27;3.42;;;1.42;;
4808;SDS011;2418;49.930;8.606;2023-04-03T13:43:54;3.00;;;1.35;;
4808;SDS011;2418;49.930;8.606;2023-04-03T13:46:25;3.00;;;1.58;;
4808;SDS011;2418;49.930;8.606;2023-04-03T13:48:52;1.13;;;1.13;;
4808;SDS011;2418;49.930;8.606;2023-04-03T13:53:59;3.10;;;1.60;;
4808;SDS011;2418;49.930;8.606;2023-04-03T14:01:24;2.53;;;1.60;;
4808;SDS011;2418;49.930;8.606;2023-04-03T14:03:55;1.63;;;1.52;;
4808;SDS011;2418;49.930;8.606;2023-04-03T14:06:22;1.50;;;1.40;;
4808;SDS011;2418;49.930;8.606;2023-04-03T14:08:48;1.45;;;1.45;;
4808;SDS011;2418;49.930;8.606;2023-04-03T14:11:15;1.60;;;1.50;;
4808;SDS011;2418;49.930;8.606;2023-04-03T14:13:42;1.70;;;1.60;;
4808;SDS011;2418;49.930;8.606;2023-04-03T14:16:11;2.75;;;1.60;;
4808;SDS011;2418;49.930;8.606;2023-04-03T14:18:37;1.70;;;1.53;;
4808;SDS011;2418;49.930;8.606;2023-04-03T14:21:03;2.05;;;1.95;;
4808;SDS011;2418;49.930;8.606;2023-04-03T14:23:29;1.70;;;1.60;;
4808;SDS011;2418;49.930;8.606;2023-04-03T14:25:55;2.00;;;1.80;;
4808;SDS011;2418;49.930;8.606;2023-04-03T14:28:22;1.90;;;1.80;;
4808;SDS011;2418;49.930;8.606;2023-04-03T14:30:49;4.32;;;1.70;;
4808;SDS011;2418;49.930;8.606;2023-04-03T14:33:17;2.30;;;2.05;;
4808;SDS011;2418;49.930;8.606;2023-04-03T14:35:44;2.83;;;2.30;;
4808;SDS011;2418;49.930;8.606;2023-04-03T14:38:32;2.13;;;1.92;;
4808;SDS011;2418;49.930;8.606;2023-04-03T14:40:57;2.30;;;2.10;;
4808;SDS011;2418;49.930;8.606;2023-04-03T14:43:23;2.28;;;2.08;;
4808;SDS011;2418;49.930;8.606;2023-04-03T14:45:50;2.08;;;1.98;;
4808;SDS011;2418;49.930;8.606;2023-04-03T14:48:18;2.87;;;2.10;;
4808;SDS011;2418;49.930;8.606;2023-04-03T14:50:49;2.00;;;1.90;;
4808;SDS011;2418;49.930;8.606;2023-04-03T14:53:15;2.78;;;2.15;;
4808;SDS011;2418;49.930;8.606;2023-04-03T14:55:43;2.80;;;2.10;;
4808;SDS011;2418;49.930;8.606;2023-04-03T14:58:12;2.05;;;1.95;;
4808;SDS011;2418;49.930;8.606;2023-04-03T15:00:38;3.15;;;1.80;;
4808;SDS011;2418;49.930;8.606;2023-04-03T15:03:04;2.30;;;1.90;;
4808;SDS011;2418;49.930;8.606;2023-04-03T15:05:31;3.53;;;2.00;;
4808;SDS011;2418;49.930;8.606;2023-04-03T15:07:57;1.90;;;1.80;;
4808;SDS011;2418;49.930;8.606;2023-04-03T15:10:29;3.30;;;2.20;;
4808;SDS011;2418;49.930;8.606;2023-04-03T15:12:56;2.35;;;2.25;;
4808;SDS011;2418;49.930;8.606;2023-04-03T15:15:23;2.22;;;1.95;;
4808;SDS011;2418;49.930;8.606;2023-04-03T15:17:53;1.80;;;1.50;;
4808;SDS011;2418;49.930;8.606;2023-04-03T15:20:21;2.20;;;1.52;;
4808;SDS011;2418;49.930;8.606;2023-04-03T15:22:47;1.73;;;1.70;;
4808;SDS011;2418;49.930;8.606;2023-04-03T15:25:13;4.37;;;1.60;;
4808;SDS011;2418;49.930;8.606;2023-04-03T15:27:39;1.80;;;1.70;;
4808;SDS011;2418;49.930;8.606;2023-04-03T15:30:07;1.88;;;1.70;;
4808;SDS011;2418;49.930;8.606;2023-04-03T15:32:33;1.95;;;1.85;;
4808;SDS011;2418;49.930;8.606;2023-04-03T15:35:00;1.60;;;1.50;;
4808;SDS011;2418;49.930;8.606;2023-04-03T15:37:26;1.48;;;1.38;;
4808;SDS011;2418;49.930;8.606;2023-04-03T15:39:52;1.67;;;1.58;;
4808;SDS011;2418;49.930;8.606;2023-04-03T15:42:18;2.95;;;1.48;;
4808;SDS011;2418;49.930;8.606;2023-04-03T15:44:45;0.90;;;0.90;;
4808;SDS011;2418;49.930;8.606;2023-04-03T15:47:10;4.07;;;1.17;;
4808;SDS011;2418;49.930;8.606;2023-04-03T15:49:36;1.52;;;1.10;;
4808;SDS011;2418;49.930;8.606;2023-04-03T15:52:02;8.30;;;1.20;;
4808;SDS011;2418;49.930;8.606;2023-04-03T15:54:29;1.42;;;1.30;;
4808;SDS011;2418;49.930;8.606;2023-04-03T15:56:55;1.90;;;1.27;;
4808;SDS011;2418;49.930;8.606;2023-04-03T15:59:21;1.70;;;1.60;;
4808;SDS011;2418;49.930;8.606;2023-04-03T16:01:47;1.80;;;1.30;;
4808;SDS011;2418;49.930;8.606;2023-04-03T16:04:13;2.50;;;1.50;;
4808;SDS011;2418;49.930;8.606;2023-04-03T16:06:40;1.65;;;1.42;;
4808;SDS011;2418;49.930;8.606;2023-04-03T16:09:06;1.90;;;1.00;;
4808;SDS011;2418;49.930;8.606;2023-04-03T16:11:33;2.40;;;1.20;;
4808;SDS011;2418;49.930;8.606;2023-04-03T16:14:01;1.30;;;1.10;;
4808;SDS011;2418;49.930;8.606;2023-04-03T16:16:27;1.40;;;1.02;;
4808;SDS011;2418;49.930;8.606;2023-04-03T16:18:54;1.70;;;1.00;;
4808;SDS011;2418;49.930;8.606;2023-04-03T16:21:20;1.10;;;1.10;;
4808;SDS011;2418;49.930;8.606;2023-04-03T16:23:47;1.67;;;1.58;;
4808;SDS011;2418;49.930;8.606;2023-04-03T16:26:13;2.35;;;1.10;;
4808;SDS011;2418;49.930;8.606;2023-04-03T16:28:42;1.40;;;1.40;;
4808;SDS011;2418;49.930;8.606;2023-04-03T16:31:08;2.70;;;0.90;;
4808;SDS011;2418;49.930;8.606;2023-04-03T16:33:34;3.35;;;1.20;;
4808;SDS011;2418;49.930;8.606;2023-04-03T16:36:03;2.15;;;0.90;;
4808;SDS011;2418;49.930;8.606;2023-04-03T16:38:29;1.90;;;1.20;;
4808;SDS011;2418;49.930;8.606;2023-04-03T16:40:55;2.25;;;1.08;;
4808;SDS011;2418;49.930;8.606;2023-04-03T16:43:24;1.20;;;1.10;;
4808;SDS011;2418;49.930;8.606;2023-04-03T16:45:50;3.95;;;1.05;;
4808;SDS011;2418;49.930;8.606;2023-04-03T16:48:16;1.25;;;0.90;;
4808;SDS011;2418;49.930;8.606;2023-04-03T16:50:45;1.90;;;1.00;;
4808;SDS011;2418;49.930;8.606;2023-04-03T16:53:13;1.70;;;1.08;;
4808;SDS011;2418;49.930;8.606;2023-04-03T16:55:39;1.08;;;1.00;;
4808;SDS011;2418;49.930;8.606;2023-04-03T16:58:05;2.13;;;0.80;;